sensor_id;sensor_type;location;lat;lon;timestamp;P1;durP1;ratioP1;P2;durP2;ratioP2
76094;SDS011;64821;13.710;100.604;2023-10-08T00:00:29;11.40;;;7.22;;
76094;SDS011;64821;13.710;100.604;2023-10-08T00:01:33;10.48;;;6.95;;
76094;SDS011;64821;13.710;100.604;2023-10-08T00:02:37;12.93;;;8.50;;
76094;SDS011;64821;13.710;100.604;2023-10-08T00:03:41;14.93;;;9.27;;
76094;SDS011;64821;13.710;100.604;2023-10-08T00:04:45;11.80;;;7.47;;
76094;SDS011;64821;13.710;100.604;2023-10-08T00:05:49;11.20;;;7.40;;
76094;SDS011;64821;13.710;100.604;2023-10-08T00:06:53;11.43;;;7.35;;
76094;SDS011;64821;13.710;100.604;2023-10-08T00:07:57;17.65;;;9.10;;
76094;SDS011;64821;13.710;100.604;2023-10-08T00:09:01;15.33;;;9.30;;
76094;SDS011;64821;13.710;100.604;2023-10-08T00:10:07;12.90;;;7.57;;
76094;SDS011;64821;13.710;100.604;2023-10-08T00:11:12;12.00;;;7.20;;
76094;SDS011;64821;13.710;100.604;2023-10-08T00:12:16;12.10;;;8.10;;
76094;SDS011;64821;13.710;100.604;2023-10-08T00:13:20;11.98;;;7.32;;
76094;SDS011;64821;13.710;100.604;2023-10-08T00:14:24;11.47;;;6.97;;
76094;SDS011;64821;13.710;100.604;2023-10-08T00:15:28;11.98;;;6.60;;
76094;SDS011;64821;13.710;100.604;2023-10-08T00:16:33;9.68;;;6.28;;
76094;SDS011;64821;13.710;100.604;2023-10-08T00:17:37;10.90;;;6.63;;
76094;SDS011;64821;13.710;100.604;2023-10-08T00:18:42;9.32;;;6.18;;
76094;SDS011;64821;13.710;100.604;2023-10-08T00:19:47;9.87;;;5.83;;
76094;SDS011;64821;13.710;100.604;2023-10-08T00:20:51;10.25;;;6.57;;
76094;SDS011;64821;13.710;100.604;2023-10-08T00:21:55;10.13;;;6.40;;
76094;SDS011;64821;13.710;100.604;2023-10-08T00:22:59;12.10;;;6.78;;
76094;SDS011;64821;13.710;100.604;2023-10-08T00:24:03;11.40;;;6.60;;
76094;SDS011;64821;13.710;100.604;2023-10-08T00:25:10;8.77;;;5.70;;
76094;SDS011;64821;13.710;100.604;2023-10-08T00:26:14;9.40;;;5.95;;
76094;SDS011;64821;13.710;100.604;2023-10-08T00:27:18;10.13;;;5.97;;
76094;SDS011;64821;13.710;100.604;2023-10-08T00:28:22;11.38;;;6.88;;
76094;SDS011;64821;13.710;100.604;2023-10-08T00:29:26;10.10;;;6.63;;
76094;SDS011;64821;13.710;100.604;2023-10-08T00:30:30;10.53;;;5.83;;
76094;SDS011;64821;13.710;100.604;2023-10-08T00:31:34;10.73;;;6.40;;
76094;SDS011;64821;13.710;100.604;2023-10-08T00:32:37;9.38;;;6.03;;
76094;SDS011;64821;13.710;100.604;2023-10-08T00:33:42;10.35;;;6.25;;
76094;SDS011;64821;13.710;100.604;2023-10-08T00:34:46;9.52;;;6.22;;
76094;SDS011;64821;13.710;100.604;2023-10-08T00:35:50;10.47;;;6.73;;
76094;SDS011;64821;13.710;100.604;2023-10-08T00:36:54;10.57;;;6.55;;
76094;SDS011;64821;13.710;100.604;2023-10-08T00:37:58;10.60;;;7.65;;
76094;SDS011;64821;13.710;100.604;2023-10-08T00:39:03;9.38;;;6.53;;
76094;SDS011;64821;13.710;100.604;2023-10-08T00:40:09;12.48;;;6.78;;
76094;SDS011;64821;13.710;100.604;2023-10-08T00:41:14;11.47;;;7.57;;
76094;SDS011;64821;13.710;100.604;2023-10-08T00:42:19;10.52;;;6.25;;
76094;SDS011;64821;13.710;100.604;2023-10-08T00:43:29;10.77;;;6.20;;
76094;SDS011;64821;13.710;100.604;2023-10-08T00:44:33;11.85;;;8.10;;
76094;SDS011;64821;13.710;100.604;2023-10-08T00:45:38;10.57;;;6.50;;
76094;SDS011;64821;13.710;100.604;2023-10-08T00:46:42;10.23;;;6.40;;
76094;SDS011;64821;13.710;100.604;2023-10-08T00:47:46;10.00;;;5.80;;
76094;SDS011;64821;13.710;100.604;2023-10-08T00:48:50;10.55;;;6.35;;
76094;SDS011;64821;13.710;100.604;2023-10-08T00:49:55;12.93;;;8.18;;
76094;SDS011;64821;13.710;100.604;2023-10-08T00:50:59;11.05;;;7.07;;
76094;SDS011;64821;13.710;100.604;2023-10-08T00:52:04;12.40;;;7.50;;
76094;SDS011;64821;13.710;100.604;2023-10-08T00:53:11;10.85;;;6.72;;
76094;SDS011;64821;13.710;100.604;2023-10-08T00:54:15;12.20;;;7.43;;
76094;SDS011;64821;13.710;100.604;2023-10-08T00:55:21;11.27;;;6.32;;
76094;SDS011;64821;13.710;100.604;2023-10-08T00:56:26;10.63;;;6.85;;
76094;SDS011;64821;13.710;100.604;2023-10-08T00:57:31;10.10;;;6.70;;
76094;SDS011;64821;13.710;100.604;2023-10-08T00:58:36;11.13;;;7.15;;
76094;SDS011;64821;13.710;100.604;2023-10-08T00:59:41;11.52;;;7.47;;
76094;SDS011;64821;13.710;100.604;2023-10-08T01:00:45;9.70;;;6.00;;
76094;SDS011;64821;13.710;100.604;2023-10-08T01:01:49;9.88;;;6.03;;
76094;SDS011;64821;13.710;100.604;2023-10-08T01:02:54;9.40;;;6.20;;
76094;SDS011;64821;13.710;100.604;2023-10-08T01:03:58;9.63;;;5.93;;
76094;SDS011;64821;13.710;100.604;2023-10-08T01:05:03;13.40;;;6.85;;
76094;SDS011;64821;13.710;100.604;2023-10-08T01:06:10;12.82;;;6.82;;
76094;SDS011;64821;13.710;100.604;2023-10-08T01:07:14;12.82;;;6.80;;
76094;SDS011;64821;13.710;100.604;2023-10-08T01:08:19;11.87;;;6.77;;
76094;SDS011;64821;13.710;100.604;2023-10-08T01:09:23;11.23;;;7.07;;
76094;SDS011;64821;13.710;100.604;2023-10-08T01:10:29;10.93;;;6.43;;
76094;SDS011;64821;13.710;100.604;2023-10-08T01:11:33;9.80;;;5.90;;
76094;SDS011;64821;13.710;100.604;2023-10-08T01:12:37;10.40;;;6.20;;
76094;SDS011;64821;13.710;100.604;2023-10-08T01:13:41;12.17;;;7.27;;
76094;SDS011;64821;13.710;100.604;2023-10-08T01:14:45;10.35;;;6.57;;
76094;SDS011;64821;13.710;100.604;2023-10-08T01:15:49;10.20;;;6.78;;
76094;SDS011;64821;13.710;100.604;2023-10-08T01:16:53;11.52;;;7.35;;
76094;SDS011;64821;13.710;100.604;2023-10-08T01:17:57;11.77;;;7.20;;
76094;SDS011;64821;13.710;100.604;2023-10-08T01:19:01;14.23;;;7.73;;
76094;SDS011;64821;13.710;100.604;2023-10-08T01:20:05;10.90;;;7.05;;
76094;SDS011;64821;13.710;100.604;2023-10-08T01:21:11;9.50;;;5.85;;
76094;SDS011;64821;13.710;100.604;2023-10-08T01:22:16;11.98;;;6.80;;
76094;SDS011;64821;13.710;100.604;2023-10-08T01:23:20;11.48;;;7.68;;
76094;SDS011;64821;13.710;100.604;2023-10-08T01:24:25;10.63;;;5.93;;
76094;SDS011;64821;13.710;100.604;2023-10-08T01:25:29;9.75;;;5.55;;
76094;SDS011;64821;13.710;100.604;2023-10-08T01:26:33;9.40;;;5.80;;
76094;SDS011;64821;13.710;100.604;2023-10-08T01:27:37;11.38;;;5.95;;
76094;SDS011;64821;13.710;100.604;2023-10-08T01:28:41;9.43;;;5.65;;
76094;SDS011;64821;13.710;100.604;2023-10-08T01:29:46;8.50;;;4.97;;
76094;SDS011;64821;13.710;100.604;2023-10-08T01:30:56;10.13;;;5.40;;
76094;SDS011;64821;13.710;100.604;2023-10-08T01:32:01;9.70;;;5.47;;
76094;SDS011;64821;13.710;100.604;2023-10-08T01:33:05;8.98;;;5.32;;
76094;SDS011;64821;13.710;100.604;2023-10-08T01:34:09;9.07;;;5.70;;
76094;SDS011;64821;13.710;100.604;2023-10-08T01:35:13;8.83;;;4.57;;
76094;SDS011;64821;13.710;100.604;2023-10-08T01:36:17;8.93;;;5.10;;
76094;SDS011;64821;13.710;100.604;2023-10-08T01:37:23;8.90;;;4.78;;
76094;SDS011;64821;13.710;100.604;2023-10-08T01:38:27;10.32;;;5.15;;
76094;SDS011;64821;13.710;100.604;2023-10-08T01:39:31;10.77;;;5.22;;
76094;SDS011;64821;13.710;100.604;2023-10-08T01:40:35;8.27;;;4.60;;
76094;SDS011;64821;13.710;100.604;2023-10-08T01:41:39;9.50;;;5.32;;
76094;SDS011;64821;13.710;100.604;2023-10-08T01:42:43;10.57;;;5.47;;
76094;SDS011;64821;13.710;100.604;2023-10-08T01:43:47;9.10;;;5.20;;
76094;SDS011;64821;13.710;100.604;2023-10-08T01:44:51;8.80;;;5.03;;
76094;SDS011;64821;13.710;100.604;2023-10-08T01:45:55;8.20;;;4.80;;
76094;SDS011;64821;13.710;100.604;2023-10-08T01:46:59;9.50;;;5.10;;
76094;SDS011;64821;13.710;100.604;2023-10-08T01:48:03;8.38;;;4.72;;
76094;SDS011;64821;13.710;100.604;2023-10-08T01:49:08;8.02;;;5.05;;
76094;SDS011;64821;13.710;100.604;2023-10-08T01:50:12;9.57;;;5.20;;
76094;SDS011;64821;13.710;100.604;2023-10-08T01:51:16;8.27;;;4.77;;
76094;SDS011;64821;13.710;100.604;2023-10-08T01:52:20;8.60;;;4.75;;
76094;SDS011;64821;13.710;100.604;2023-10-08T01:53:26;10.45;;;5.32;;
76094;SDS011;64821;13.710;100.604;2023-10-08T01:54:30;8.80;;;5.10;;
76094;SDS011;64821;13.710;100.604;2023-10-08T01:55:34;8.95;;;4.97;;
76094;SDS011;64821;13.710;100.604;2023-10-08T01:56:38;7.97;;;4.60;;
76094;SDS011;64821;13.710;100.604;2023-10-08T01:57:44;8.05;;;4.72;;
76094;SDS011;64821;13.710;100.604;2023-10-08T01:58:49;10.05;;;5.90;;
76094;SDS011;64821;13.710;100.604;2023-10-08T01:59:53;9.63;;;5.32;;
76094;SDS011;64821;13.710;100.604;2023-10-08T02:00:57;9.73;;;5.65;;
76094;SDS011;64821;13.710;100.604;2023-10-08T02:02:02;10.07;;;5.07;;
76094;SDS011;64821;13.710;100.604;2023-10-08T02:03:06;7.72;;;4.28;;
76094;SDS011;64821;13.710;100.604;2023-10-08T02:04:10;9.35;;;4.50;;
76094;SDS011;64821;13.710;100.604;2023-10-08T02:05:15;9.85;;;5.03;;
76094;SDS011;64821;13.710;100.604;2023-10-08T02:06:19;8.30;;;4.65;;
76094;SDS011;64821;13.710;100.604;2023-10-08T02:07:29;9.97;;;5.33;;
76094;SDS011;64821;13.710;100.604;2023-10-08T02:08:34;8.15;;;4.60;;
76094;SDS011;64821;13.710;100.604;2023-10-08T02:09:43;8.70;;;4.97;;
76094;SDS011;64821;13.710;100.604;2023-10-08T02:10:49;7.88;;;4.95;;
76094;SDS011;64821;13.710;100.604;2023-10-08T02:11:56;8.50;;;4.95;;
76094;SDS011;64821;13.710;100.604;2023-10-08T02:13:08;9.10;;;4.60;;
76094;SDS011;64821;13.710;100.604;2023-10-08T02:14:13;8.45;;;4.22;;
76094;SDS011;64821;13.710;100.604;2023-10-08T02:15:17;8.10;;;4.60;;
76094;SDS011;64821;13.710;100.604;2023-10-08T02:16:21;8.32;;;4.20;;
76094;SDS011;64821;13.710;100.604;2023-10-08T02:17:25;11.48;;;4.82;;
76094;SDS011;64821;13.710;100.604;2023-10-08T02:18:29;8.07;;;4.90;;
76094;SDS011;64821;13.710;100.604;2023-10-08T02:19:34;7.80;;;4.47;;
76094;SDS011;64821;13.710;100.604;2023-10-08T02:20:38;8.68;;;4.60;;
76094;SDS011;64821;13.710;100.604;2023-10-08T02:21:42;7.53;;;4.07;;
76094;SDS011;64821;13.710;100.604;2023-10-08T02:22:47;7.18;;;4.07;;
76094;SDS011;64821;13.710;100.604;2023-10-08T02:23:54;8.73;;;3.97;;
76094;SDS011;64821;13.710;100.604;2023-10-08T02:25:00;7.88;;;4.32;;
76094;SDS011;64821;13.710;100.604;2023-10-08T02:26:04;7.15;;;3.53;;
76094;SDS011;64821;13.710;100.604;2023-10-08T02:27:08;7.10;;;3.58;;
76094;SDS011;64821;13.710;100.604;2023-10-08T02:28:12;6.80;;;3.50;;
76094;SDS011;64821;13.710;100.604;2023-10-08T02:29:18;7.97;;;3.97;;
76094;SDS011;64821;13.710;100.604;2023-10-08T02:30:24;7.40;;;3.38;;
76094;SDS011;64821;13.710;100.604;2023-10-08T02:31:28;8.85;;;3.75;;
76094;SDS011;64821;13.710;100.604;2023-10-08T02:32:33;8.55;;;3.85;;
76094;SDS011;64821;13.710;100.604;2023-10-08T02:33:37;6.43;;;3.20;;
76094;SDS011;64821;13.710;100.604;2023-10-08T02:34:44;7.13;;;3.60;;
76094;SDS011;64821;13.710;100.604;2023-10-08T02:35:48;7.82;;;3.50;;
76094;SDS011;64821;13.710;100.604;2023-10-08T02:36:52;9.05;;;4.35;;
76094;SDS011;64821;13.710;100.604;2023-10-08T02:37:56;6.88;;;3.60;;
76094;SDS011;64821;13.710;100.604;2023-10-08T02:39:02;8.05;;;4.03;;
76094;SDS011;64821;13.710;100.604;2023-10-08T02:40:06;8.93;;;3.70;;
76094;SDS011;64821;13.710;100.604;2023-10-08T02:41:15;7.10;;;3.40;;
76094;SDS011;64821;13.710;100.604;2023-10-08T02:42:19;7.18;;;3.53;;
76094;SDS011;64821;13.710;100.604;2023-10-08T02:43:23;7.07;;;3.10;;
76094;SDS011;64821;13.710;100.604;2023-10-08T02:44:27;7.82;;;3.15;;
76094;SDS011;64821;13.710;100.604;2023-10-08T02:45:31;6.63;;;3.20;;
76094;SDS011;64821;13.710;100.604;2023-10-08T02:46:35;7.75;;;3.20;;
76094;SDS011;64821;13.710;100.604;2023-10-08T02:47:40;7.97;;;3.67;;
76094;SDS011;64821;13.710;100.604;2023-10-08T02:48:45;7.05;;;3.38;;
76094;SDS011;64821;13.710;100.604;2023-10-08T02:49:49;7.45;;;3.70;;
76094;SDS011;64821;13.710;100.604;2023-10-08T02:50:52;7.67;;;3.70;;
76094;SDS011;64821;13.710;100.604;2023-10-08T02:51:56;7.45;;;3.20;;
76094;SDS011;64821;13.710;100.604;2023-10-08T02:53:00;8.00;;;3.58;;
76094;SDS011;64821;13.710;100.604;2023-10-08T02:54:07;7.07;;;3.47;;
76094;SDS011;64821;13.710;100.604;2023-10-08T02:55:11;7.72;;;3.60;;
76094;SDS011;64821;13.710;100.604;2023-10-08T02:56:18;7.40;;;3.63;;
76094;SDS011;64821;13.710;100.604;2023-10-08T02:57:25;7.18;;;3.67;;
76094;SDS011;64821;13.710;100.604;2023-10-08T02:58:29;8.15;;;3.30;;
76094;SDS011;64821;13.710;100.604;2023-10-08T02:59:36;8.52;;;3.63;;
76094;SDS011;64821;13.710;100.604;2023-10-08T03:00:42;6.68;;;3.10;;
76094;SDS011;64821;13.710;100.604;2023-10-08T03:01:47;6.67;;;2.90;;
76094;SDS011;64821;13.710;100.604;2023-10-08T03:02:55;8.65;;;3.67;;
76094;SDS011;64821;13.710;100.604;2023-10-08T03:04:00;7.20;;;3.25;;
76094;SDS011;64821;13.710;100.604;2023-10-08T03:05:05;7.28;;;3.40;;
76094;SDS011;64821;13.710;100.604;2023-10-08T03:06:09;7.13;;;3.10;;
76094;SDS011;64821;13.710;100.604;2023-10-08T03:07:14;7.43;;;3.40;;
76094;SDS011;64821;13.710;100.604;2023-10-08T03:08:20;7.05;;;3.40;;
76094;SDS011;64821;13.710;100.604;2023-10-08T03:09:25;8.68;;;3.75;;
76094;SDS011;64821;13.710;100.604;2023-10-08T03:10:29;7.07;;;3.13;;
76094;SDS011;64821;13.710;100.604;2023-10-08T03:11:33;8.35;;;3.50;;
76094;SDS011;64821;13.710;100.604;2023-10-08T03:12:37;7.43;;;3.30;;
76094;SDS011;64821;13.710;100.604;2023-10-08T03:13:41;7.25;;;3.08;;
76094;SDS011;64821;13.710;100.604;2023-10-08T03:14:48;6.78;;;3.20;;
76094;SDS011;64821;13.710;100.604;2023-10-08T03:15:52;6.80;;;3.10;;
76094;SDS011;64821;13.710;100.604;2023-10-08T03:16:56;7.28;;;3.50;;
76094;SDS011;64821;13.710;100.604;2023-10-08T03:18:00;7.07;;;3.20;;
76094;SDS011;64821;13.710;100.604;2023-10-08T03:19:04;6.72;;;3.13;;
76094;SDS011;64821;13.710;100.604;2023-10-08T03:20:08;6.68;;;2.90;;
76094;SDS011;64821;13.710;100.604;2023-10-08T03:21:12;7.75;;;3.42;;
76094;SDS011;64821;13.710;100.604;2023-10-08T03:22:16;6.40;;;3.10;;
76094;SDS011;64821;13.710;100.604;2023-10-08T03:23:20;6.40;;;2.70;;
76094;SDS011;64821;13.710;100.604;2023-10-08T03:24:26;6.35;;;2.67;;
76094;SDS011;64821;13.710;100.604;2023-10-08T03:25:30;6.45;;;2.72;;
76094;SDS011;64821;13.710;100.604;2023-10-08T03:26:34;7.10;;;2.50;;
76094;SDS011;64821;13.710;100.604;2023-10-08T03:27:38;6.45;;;2.95;;
76094;SDS011;64821;13.710;100.604;2023-10-08T03:28:42;6.00;;;2.40;;
76094;SDS011;64821;13.710;100.604;2023-10-08T03:29:46;6.03;;;2.42;;
76094;SDS011;64821;13.710;100.604;2023-10-08T03:30:51;5.80;;;2.50;;
76094;SDS011;64821;13.710;100.604;2023-10-08T03:31:55;5.93;;;2.30;;
76094;SDS011;64821;13.710;100.604;2023-10-08T03:32:58;6.22;;;2.28;;
76094;SDS011;64821;13.710;100.604;2023-10-08T03:34:03;6.37;;;2.50;;
76094;SDS011;64821;13.710;100.604;2023-10-08T03:35:07;5.63;;;2.10;;
76094;SDS011;64821;13.710;100.604;2023-10-08T03:36:11;5.88;;;2.40;;
76094;SDS011;64821;13.710;100.604;2023-10-08T03:37:16;7.05;;;2.50;;
76094;SDS011;64821;13.710;100.604;2023-10-08T03:38:21;5.88;;;2.30;;
76094;SDS011;64821;13.710;100.604;2023-10-08T03:39:27;6.27;;;2.40;;
76094;SDS011;64821;13.710;100.604;2023-10-08T03:40:31;7.22;;;2.80;;
76094;SDS011;64821;13.710;100.604;2023-10-08T03:41:35;6.47;;;2.47;;
76094;SDS011;64821;13.710;100.604;2023-10-08T03:42:39;5.38;;;2.10;;
76094;SDS011;64821;13.710;100.604;2023-10-08T03:43:43;5.80;;;2.20;;
76094;SDS011;64821;13.710;100.604;2023-10-08T03:44:47;5.40;;;2.13;;
76094;SDS011;64821;13.710;100.604;2023-10-08T03:45:54;6.38;;;2.22;;
76094;SDS011;64821;13.710;100.604;2023-10-08T03:46:58;6.32;;;2.30;;
76094;SDS011;64821;13.710;100.604;2023-10-08T03:48:03;5.35;;;2.05;;
76094;SDS011;64821;13.710;100.604;2023-10-08T03:49:07;6.03;;;2.10;;
76094;SDS011;64821;13.710;100.604;2023-10-08T03:50:12;7.07;;;2.30;;
76094;SDS011;64821;13.710;100.604;2023-10-08T03:51:16;5.70;;;1.80;;
76094;SDS011;64821;13.710;100.604;2023-10-08T03:52:21;5.50;;;2.20;;
76094;SDS011;64821;13.710;100.604;2023-10-08T03:53:25;5.68;;;2.05;;
76094;SDS011;64821;13.710;100.604;2023-10-08T03:54:30;6.25;;;2.30;;
76094;SDS011;64821;13.710;100.604;2023-10-08T03:55:34;5.97;;;2.40;;
76094;SDS011;64821;13.710;100.604;2023-10-08T03:56:38;6.05;;;2.22;;
76094;SDS011;64821;13.710;100.604;2023-10-08T03:57:43;5.80;;;2.38;;
76094;SDS011;64821;13.710;100.604;2023-10-08T03:58:47;6.25;;;2.10;;
76094;SDS011;64821;13.710;100.604;2023-10-08T03:59:51;6.85;;;2.25;;
76094;SDS011;64821;13.710;100.604;2023-10-08T04:00:55;5.40;;;1.90;;
76094;SDS011;64821;13.710;100.604;2023-10-08T04:02:00;5.30;;;1.80;;
76094;SDS011;64821;13.710;100.604;2023-10-08T04:03:05;5.10;;;1.75;;
76094;SDS011;64821;13.710;100.604;2023-10-08T04:04:09;7.05;;;1.80;;
76094;SDS011;64821;13.710;100.604;2023-10-08T04:05:13;6.57;;;2.15;;
76094;SDS011;64821;13.710;100.604;2023-10-08T04:06:17;6.07;;;2.20;;
76094;SDS011;64821;13.710;100.604;2023-10-08T04:07:21;5.68;;;2.38;;
76094;SDS011;64821;13.710;100.604;2023-10-08T04:08:26;5.70;;;2.67;;
76094;SDS011;64821;13.710;100.604;2023-10-08T04:09:33;6.82;;;2.85;;
76094;SDS011;64821;13.710;100.604;2023-10-08T04:10:37;5.93;;;2.90;;
76094;SDS011;64821;13.710;100.604;2023-10-08T04:11:41;5.70;;;2.70;;
76094;SDS011;64821;13.710;100.604;2023-10-08T04:12:46;6.40;;;2.65;;
76094;SDS011;64821;13.710;100.604;2023-10-08T04:13:50;6.22;;;2.80;;
76094;SDS011;64821;13.710;100.604;2023-10-08T04:14:54;5.68;;;2.80;;
76094;SDS011;64821;13.710;100.604;2023-10-08T04:15:58;6.07;;;2.70;;
76094;SDS011;64821;13.710;100.604;2023-10-08T04:17:02;6.00;;;2.60;;
76094;SDS011;64821;13.710;100.604;2023-10-08T04:18:06;5.63;;;2.70;;
76094;SDS011;64821;13.710;100.604;2023-10-08T04:19:10;5.80;;;2.70;;
76094;SDS011;64821;13.710;100.604;2023-10-08T04:20:15;5.15;;;2.30;;
76094;SDS011;64821;13.710;100.604;2023-10-08T04:21:19;6.38;;;2.50;;
76094;SDS011;64821;13.710;100.604;2023-10-08T04:22:24;5.93;;;2.70;;
76094;SDS011;64821;13.710;100.604;2023-10-08T04:23:28;5.72;;;2.50;;
76094;SDS011;64821;13.710;100.604;2023-10-08T04:24:34;6.22;;;2.55;;
76094;SDS011;64821;13.710;100.604;2023-10-08T04:25:38;5.43;;;2.30;;
76094;SDS011;64821;13.710;100.604;2023-10-08T04:26:44;5.45;;;2.30;;
76094;SDS011;64821;13.710;100.604;2023-10-08T04:27:48;7.47;;;2.50;;
76094;SDS011;64821;13.710;100.604;2023-10-08T04:28:52;6.15;;;2.10;;
76094;SDS011;64821;13.710;100.604;2023-10-08T04:29:57;5.53;;;2.25;;
76094;SDS011;64821;13.710;100.604;2023-10-08T04:31:01;5.10;;;2.20;;
76094;SDS011;64821;13.710;100.604;2023-10-08T04:32:05;5.55;;;2.08;;
76094;SDS011;64821;13.710;100.604;2023-10-08T04:33:10;5.20;;;2.20;;
76094;SDS011;64821;13.710;100.604;2023-10-08T04:34:14;5.95;;;2.33;;
76094;SDS011;64821;13.710;100.604;2023-10-08T04:35:17;5.72;;;2.15;;
76094;SDS011;64821;13.710;100.604;2023-10-08T04:36:21;5.38;;;2.33;;
76094;SDS011;64821;13.710;100.604;2023-10-08T04:37:25;5.30;;;2.15;;
76094;SDS011;64821;13.710;100.604;2023-10-08T04:38:29;5.90;;;2.07;;
76094;SDS011;64821;13.710;100.604;2023-10-08T04:39:35;5.20;;;2.10;;
76094;SDS011;64821;13.710;100.604;2023-10-08T04:40:39;5.18;;;2.00;;
76094;SDS011;64821;13.710;100.604;2023-10-08T04:41:43;5.30;;;1.90;;
76094;SDS011;64821;13.710;100.604;2023-10-08T04:42:47;5.68;;;2.00;;
76094;SDS011;64821;13.710;100.604;2023-10-08T04:43:51;5.57;;;2.00;;
76094;SDS011;64821;13.710;100.604;2023-10-08T04:44:55;5.78;;;2.00;;
76094;SDS011;64821;13.710;100.604;2023-10-08T04:45:59;6.20;;;1.80;;
76094;SDS011;64821;13.710;100.604;2023-10-08T04:47:04;4.88;;;1.50;;
76094;SDS011;64821;13.710;100.604;2023-10-08T04:48:08;5.20;;;1.88;;
76094;SDS011;64821;13.710;100.604;2023-10-08T04:49:12;4.80;;;1.53;;
76094;SDS011;64821;13.710;100.604;2023-10-08T04:50:16;5.20;;;1.95;;
76094;SDS011;64821;13.710;100.604;2023-10-08T04:51:20;5.10;;;1.65;;
76094;SDS011;64821;13.710;100.604;2023-10-08T04:52:24;5.35;;;1.70;;
76094;SDS011;64821;13.710;100.604;2023-10-08T04:53:28;5.30;;;1.75;;
76094;SDS011;64821;13.710;100.604;2023-10-08T04:54:35;6.50;;;1.97;;
76094;SDS011;64821;13.710;100.604;2023-10-08T04:55:39;5.65;;;1.95;;
76094;SDS011;64821;13.710;100.604;2023-10-08T04:56:43;4.93;;;1.60;;
76094;SDS011;64821;13.710;100.604;2023-10-08T04:57:47;6.00;;;2.05;;
76094;SDS011;64821;13.710;100.604;2023-10-08T04:58:51;5.70;;;1.95;;
76094;SDS011;64821;13.710;100.604;2023-10-08T04:59:55;5.43;;;1.57;;
76094;SDS011;64821;13.710;100.604;2023-10-08T05:00:59;6.65;;;1.55;;
76094;SDS011;64821;13.710;100.604;2023-10-08T05:02:04;5.40;;;1.80;;
76094;SDS011;64821;13.710;100.604;2023-10-08T05:03:08;5.43;;;1.70;;
76094;SDS011;64821;13.710;100.604;2023-10-08T05:04:12;5.28;;;1.90;;
76094;SDS011;64821;13.710;100.604;2023-10-08T05:05:17;5.60;;;1.70;;
76094;SDS011;64821;13.710;100.604;2023-10-08T05:06:22;4.93;;;1.75;;
76094;SDS011;64821;13.710;100.604;2023-10-08T05:07:27;5.40;;;1.80;;
76094;SDS011;64821;13.710;100.604;2023-10-08T05:08:31;5.45;;;1.90;;
76094;SDS011;64821;13.710;100.604;2023-10-08T05:09:37;5.55;;;1.80;;
76094;SDS011;64821;13.710;100.604;2023-10-08T05:10:41;5.30;;;1.83;;
76094;SDS011;64821;13.710;100.604;2023-10-08T05:11:45;5.65;;;1.77;;
76094;SDS011;64821;13.710;100.604;2023-10-08T05:12:50;4.90;;;1.60;;
76094;SDS011;64821;13.710;100.604;2023-10-08T05:13:54;5.53;;;1.70;;
76094;SDS011;64821;13.710;100.604;2023-10-08T05:14:58;6.32;;;2.00;;
76094;SDS011;64821;13.710;100.604;2023-10-08T05:16:03;5.13;;;1.60;;
76094;SDS011;64821;13.710;100.604;2023-10-08T05:17:07;5.60;;;1.80;;
76094;SDS011;64821;13.710;100.604;2023-10-08T05:18:11;5.30;;;1.77;;
76094;SDS011;64821;13.710;100.604;2023-10-08T05:19:15;6.35;;;1.60;;
76094;SDS011;64821;13.710;100.604;2023-10-08T05:20:20;5.75;;;1.85;;
76094;SDS011;64821;13.710;100.604;2023-10-08T05:21:24;5.40;;;1.80;;
76094;SDS011;64821;13.710;100.604;2023-10-08T05:22:28;5.72;;;2.00;;
76094;SDS011;64821;13.710;100.604;2023-10-08T05:23:33;5.05;;;1.80;;
76094;SDS011;64821;13.710;100.604;2023-10-08T05:24:39;5.28;;;1.83;;
76094;SDS011;64821;13.710;100.604;2023-10-08T05:25:43;6.00;;;2.03;;
76094;SDS011;64821;13.710;100.604;2023-10-08T05:26:47;5.47;;;1.70;;
76094;SDS011;64821;13.710;100.604;2023-10-08T05:27:52;5.88;;;1.90;;
76094;SDS011;64821;13.710;100.604;2023-10-08T05:28:56;5.68;;;1.80;;
76094;SDS011;64821;13.710;100.604;2023-10-08T05:30:01;5.70;;;2.03;;
76094;SDS011;64821;13.710;100.604;2023-10-08T05:31:07;5.10;;;1.83;;
76094;SDS011;64821;13.710;100.604;2023-10-08T05:32:11;4.90;;;1.80;;
76094;SDS011;64821;13.710;100.604;2023-10-08T05:33:15;6.05;;;1.70;;
76094;SDS011;64821;13.710;100.604;2023-10-08T05:34:19;5.35;;;2.05;;
76094;SDS011;64821;13.710;100.604;2023-10-08T05:35:24;5.75;;;2.00;;
76094;SDS011;64821;13.710;100.604;2023-10-08T05:36:28;5.45;;;2.00;;
76094;SDS011;64821;13.710;100.604;2023-10-08T05:37:32;5.73;;;1.87;;
76094;SDS011;64821;13.710;100.604;2023-10-08T05:38:36;5.72;;;2.10;;
76094;SDS011;64821;13.710;100.604;2023-10-08T05:39:42;5.43;;;2.10;;
76094;SDS011;64821;13.710;100.604;2023-10-08T05:40:46;5.18;;;1.90;;
76094;SDS011;64821;13.710;100.604;2023-10-08T05:41:50;5.40;;;1.92;;
76094;SDS011;64821;13.710;100.604;2023-10-08T05:42:55;5.43;;;2.00;;
76094;SDS011;64821;13.710;100.604;2023-10-08T05:43:59;5.85;;;1.90;;
76094;SDS011;64821;13.710;100.604;2023-10-08T05:45:03;6.15;;;2.03;;
76094;SDS011;64821;13.710;100.604;2023-10-08T05:46:08;6.10;;;2.20;;
76094;SDS011;64821;13.710;100.604;2023-10-08T05:47:13;5.25;;;1.90;;
76094;SDS011;64821;13.710;100.604;2023-10-08T05:48:17;5.73;;;1.90;;
76094;SDS011;64821;13.710;100.604;2023-10-08T05:49:21;5.15;;;1.80;;
76094;SDS011;64821;13.710;100.604;2023-10-08T05:50:25;5.90;;;2.00;;
76094;SDS011;64821;13.710;100.604;2023-10-08T05:51:42;5.18;;;1.98;;
76094;SDS011;64821;13.710;100.604;2023-10-08T05:52:47;5.70;;;2.20;;
76094;SDS011;64821;13.710;100.604;2023-10-08T05:53:53;5.30;;;1.87;;
76094;SDS011;64821;13.710;100.604;2023-10-08T05:54:59;5.70;;;2.20;;
76094;SDS011;64821;13.710;100.604;2023-10-08T05:56:06;5.45;;;2.10;;
76094;SDS011;64821;13.710;100.604;2023-10-08T05:57:10;6.10;;;2.10;;
76094;SDS011;64821;13.710;100.604;2023-10-08T05:58:17;5.25;;;1.75;;
76094;SDS011;64821;13.710;100.604;2023-10-08T05:59:26;5.30;;;2.10;;
76094;SDS011;64821;13.710;100.604;2023-10-08T06:00:32;5.53;;;2.17;;
76094;SDS011;64821;13.710;100.604;2023-10-08T06:01:36;5.40;;;1.98;;
76094;SDS011;64821;13.710;100.604;2023-10-08T06:02:42;6.47;;;2.00;;
76094;SDS011;64821;13.710;100.604;2023-10-08T06:03:48;7.53;;;2.40;;
76094;SDS011;64821;13.710;100.604;2023-10-08T06:04:52;5.70;;;2.00;;
76094;SDS011;64821;13.710;100.604;2023-10-08T06:05:56;6.13;;;2.17;;
76094;SDS011;64821;13.710;100.604;2023-10-08T06:07:02;5.97;;;1.80;;
76094;SDS011;64821;13.710;100.604;2023-10-08T06:08:06;7.75;;;3.75;;
76094;SDS011;64821;13.710;100.604;2023-10-08T06:09:10;11.77;;;8.50;;
76094;SDS011;64821;13.710;100.604;2023-10-08T06:10:16;9.43;;;6.40;;
76094;SDS011;64821;13.710;100.604;2023-10-08T06:11:20;11.13;;;7.22;;
76094;SDS011;64821;13.710;100.604;2023-10-08T06:12:24;9.82;;;5.63;;
76094;SDS011;64821;13.710;100.604;2023-10-08T06:13:28;8.35;;;4.43;;
76094;SDS011;64821;13.710;100.604;2023-10-08T06:14:33;8.07;;;4.10;;
76094;SDS011;64821;13.710;100.604;2023-10-08T06:15:37;6.20;;;2.90;;
76094;SDS011;64821;13.710;100.604;2023-10-08T06:16:42;6.60;;;3.30;;